Anstruther, United Kingdom
Current Conditions -  °F | °C
As of 2:50 AM on Tuesday 23 Dec 2014 (Local Time) from EGQL Reporting Station
Clear Clear  
Wind Chill: 37°   Ceiling: Unl
Heat Index: 45°   Visibility: 6mi
Dew Point: 41°   Wind: 17mph
Humidity: 87%   Direction: 260°W
Pressure: 29.56"   Gusts: NA
Location:  56.22°N, 2.7°W
Report Text: EGQL 230250Z 26015KT CAVOK 07/05 Q1001 BLU
Loading
Personal Weather Stations






























Interactive Weather Map New forecast layout! Learn more

10-Day Weather Forecast

Advertisements
Track Severe Weather on mobile